sensor_id;sensor_type;location;lat;lon;timestamp;pressure;altitude;pressure_sealevel;temperature;humidity
16331;BME280;8275;48.206;16.340;2023-05-24T00:02:10;99123.41;;;22.58;48.11
16331;BME280;8275;48.206;16.340;2023-05-24T00:04:40;99130.50;;;22.56;48.18
16331;BME280;8275;48.206;16.340;2023-05-24T00:07:11;99114.41;;;22.53;48.43
16331;BME280;8275;48.206;16.340;2023-05-24T00:09:39;99123.47;;;22.50;48.14
16331;BME280;8275;48.206;16.340;2023-05-24T00:12:08;99123.31;;;22.46;47.95
16331;BME280;8275;48.206;16.340;2023-05-24T00:14:37;99119.59;;;22.42;48.06
16331;BME280;8275;48.206;16.340;2023-05-24T00:17:05;99127.78;;;22.38;48.20
16331;BME280;8275;48.206;16.340;2023-05-24T00:19:35;99117.31;;;22.35;48.40
16331;BME280;8275;48.206;16.340;2023-05-24T00:22:04;99127.50;;;22.31;48.53
16331;BME280;8275;48.206;16.340;2023-05-24T00:24:33;99120.97;;;22.27;48.12
16331;BME280;8275;48.206;16.340;2023-05-24T00:27:01;99120.00;;;22.23;48.40
16331;BME280;8275;48.206;16.340;2023-05-24T00:29:30;99117.88;;;22.20;48.07
16331;BME280;8275;48.206;16.340;2023-05-24T00:31:58;99125.78;;;22.18;48.37
16331;BME280;8275;48.206;16.340;2023-05-24T00:34:27;99128.91;;;22.17;48.29
16331;BME280;8275;48.206;16.340;2023-05-24T00:36:57;99116.09;;;22.16;47.95
16331;BME280;8275;48.206;16.340;2023-05-24T00:39:26;99121.22;;;22.14;47.95
16331;BME280;8275;48.206;16.340;2023-05-24T00:41:55;99122.34;;;22.13;48.11
16331;BME280;8275;48.206;16.340;2023-05-24T00:44:23;99123.03;;;22.10;47.85
16331;BME280;8275;48.206;16.340;2023-05-24T00:46:51;99122.56;;;22.08;47.74
16331;BME280;8275;48.206;16.340;2023-05-24T00:49:20;99125.19;;;22.04;47.91
16331;BME280;8275;48.206;16.340;2023-05-24T00:51:50;99121.44;;;22.00;48.00
16331;BME280;8275;48.206;16.340;2023-05-24T00:54:21;99126.06;;;21.96;48.15
16331;BME280;8275;48.206;16.340;2023-05-24T00:56:53;99122.63;;;21.91;47.96
16331;BME280;8275;48.206;16.340;2023-05-24T00:59:22;99123.97;;;21.85;48.20
16331;BME280;8275;48.206;16.340;2023-05-24T01:01:51;99116.56;;;21.80;47.93
16331;BME280;8275;48.206;16.340;2023-05-24T01:04:21;99124.63;;;21.73;47.91
16331;BME280;8275;48.206;16.340;2023-05-24T01:07:04;99130.22;;;21.64;48.29
16331;BME280;8275;48.206;16.340;2023-05-24T01:09:54;99127.47;;;21.56;48.05
16331;BME280;8275;48.206;16.340;2023-05-24T01:12:35;99126.00;;;21.50;48.02
16331;BME280;8275;48.206;16.340;2023-05-24T01:15:18;99136.03;;;21.42;48.09
16331;BME280;8275;48.206;16.340;2023-05-24T01:17:58;99133.06;;;21.39;48.42
16331;BME280;8275;48.206;16.340;2023-05-24T01:20:32;99138.00;;;21.33;48.39
16331;BME280;8275;48.206;16.340;2023-05-24T01:23:17;99130.97;;;21.27;48.46
16331;BME280;8275;48.206;16.340;2023-05-24T01:26:07;99135.41;;;21.20;48.68
16331;BME280;8275;48.206;16.340;2023-05-24T01:28:43;99144.41;;;21.17;48.75
16331;BME280;8275;48.206;16.340;2023-05-24T01:31:14;99138.19;;;21.11;48.68
16331;BME280;8275;48.206;16.340;2023-05-24T01:33:44;99153.09;;;21.07;48.97
16331;BME280;8275;48.206;16.340;2023-05-24T01:36:12;99147.19;;;20.99;48.83
16331;BME280;8275;48.206;16.340;2023-05-24T01:38:41;99150.13;;;20.94;48.83
16331;BME280;8275;48.206;16.340;2023-05-24T01:41:21;99142.75;;;20.90;48.85
16331;BME280;8275;48.206;16.340;2023-05-24T01:43:59;99152.38;;;20.84;49.41
16331;BME280;8275;48.206;16.340;2023-05-24T01:46:35;99146.66;;;20.80;49.22
16331;BME280;8275;48.206;16.340;2023-05-24T01:49:15;99144.03;;;20.75;49.42
16331;BME280;8275;48.206;16.340;2023-05-24T01:51:49;99139.94;;;20.73;49.44
16331;BME280;8275;48.206;16.340;2023-05-24T01:54:23;99141.41;;;20.70;49.19
16331;BME280;8275;48.206;16.340;2023-05-24T01:56:53;99132.22;;;20.70;49.46
16331;BME280;8275;48.206;16.340;2023-05-24T01:59:27;99134.03;;;20.66;49.30
16331;BME280;8275;48.206;16.340;2023-05-24T02:01:57;99136.66;;;20.62;49.50
16331;BME280;8275;48.206;16.340;2023-05-24T02:04:26;99138.63;;;20.62;49.49
16331;BME280;8275;48.206;16.340;2023-05-24T02:06:54;99146.47;;;20.60;49.46
16331;BME280;8275;48.206;16.340;2023-05-24T02:09:23;99151.84;;;20.56;49.57
16331;BME280;8275;48.206;16.340;2023-05-24T02:11:51;99146.97;;;20.53;49.45
16331;BME280;8275;48.206;16.340;2023-05-24T02:14:19;99143.69;;;20.51;49.38
16331;BME280;8275;48.206;16.340;2023-05-24T02:16:49;99140.72;;;20.48;49.44
16331;BME280;8275;48.206;16.340;2023-05-24T02:19:18;99144.97;;;20.45;49.44
16331;BME280;8275;48.206;16.340;2023-05-24T02:21:47;99148.09;;;20.44;49.44
16331;BME280;8275;48.206;16.340;2023-05-24T02:24:16;99150.69;;;20.40;49.50
16331;BME280;8275;48.206;16.340;2023-05-24T02:26:44;99151.00;;;20.39;49.57
16331;BME280;8275;48.206;16.340;2023-05-24T02:29:13;99142.16;;;20.37;49.50
16331;BME280;8275;48.206;16.340;2023-05-24T02:31:41;99151.97;;;20.34;49.82
16331;BME280;8275;48.206;16.340;2023-05-24T02:34:11;99160.66;;;20.33;49.74
16331;BME280;8275;48.206;16.340;2023-05-24T02:36:39;99151.00;;;20.30;49.61
16331;BME280;8275;48.206;16.340;2023-05-24T02:39:08;99155.25;;;20.27;49.84
16331;BME280;8275;48.206;16.340;2023-05-24T02:41:37;99158.66;;;20.24;49.74
16331;BME280;8275;48.206;16.340;2023-05-24T02:44:05;99169.28;;;20.22;49.57
16331;BME280;8275;48.206;16.340;2023-05-24T02:46:34;99162.38;;;20.20;49.95
16331;BME280;8275;48.206;16.340;2023-05-24T02:49:02;99162.22;;;20.16;50.22
16331;BME280;8275;48.206;16.340;2023-05-24T02:51:32;99161.72;;;20.14;50.06
16331;BME280;8275;48.206;16.340;2023-05-24T02:54:00;99166.75;;;20.12;50.04
16331;BME280;8275;48.206;16.340;2023-05-24T02:56:29;99168.22;;;20.10;49.99
16331;BME280;8275;48.206;16.340;2023-05-24T02:58:57;99173.28;;;20.08;50.05
16331;BME280;8275;48.206;16.340;2023-05-24T03:01:26;99173.63;;;20.06;50.12
16331;BME280;8275;48.206;16.340;2023-05-24T03:03:55;99168.69;;;20.03;49.86
16331;BME280;8275;48.206;16.340;2023-05-24T03:06:23;99161.50;;;20.02;49.85
16331;BME280;8275;48.206;16.340;2023-05-24T03:08:53;99173.75;;;20.01;49.87
16331;BME280;8275;48.206;16.340;2023-05-24T03:11:21;99166.56;;;20.00;49.98
16331;BME280;8275;48.206;16.340;2023-05-24T03:13:50;99172.75;;;19.97;49.98
16331;BME280;8275;48.206;16.340;2023-05-24T03:16:18;99172.25;;;19.95;50.01
16331;BME280;8275;48.206;16.340;2023-05-24T03:18:47;99172.25;;;19.95;49.84
16331;BME280;8275;48.206;16.340;2023-05-24T03:21:17;99183.69;;;19.94;49.84
16331;BME280;8275;48.206;16.340;2023-05-24T03:23:47;99182.88;;;19.93;49.95
16331;BME280;8275;48.206;16.340;2023-05-24T03:26:17;99184.84;;;19.93;50.10
16331;BME280;8275;48.206;16.340;2023-05-24T03:28:46;99182.06;;;19.93;49.82
16331;BME280;8275;48.206;16.340;2023-05-24T03:31:16;99182.88;;;19.93;49.73
16331;BME280;8275;48.206;16.340;2023-05-24T03:33:47;99181.72;;;19.94;49.94
16331;BME280;8275;48.206;16.340;2023-05-24T03:36:15;99185.34;;;19.95;49.69
16331;BME280;8275;48.206;16.340;2023-05-24T03:38:43;99188.63;;;19.97;49.88
16331;BME280;8275;48.206;16.340;2023-05-24T03:41:12;99187.16;;;19.99;49.75
16331;BME280;8275;48.206;16.340;2023-05-24T03:43:41;99185.19;;;20.00;49.69
16331;BME280;8275;48.206;16.340;2023-05-24T03:46:10;99182.09;;;20.01;49.72
16331;BME280;8275;48.206;16.340;2023-05-24T03:48:38;99184.56;;;20.03;49.75
16331;BME280;8275;48.206;16.340;2023-05-24T03:51:07;99195.84;;;20.06;49.80
16331;BME280;8275;48.206;16.340;2023-05-24T03:53:35;99187.69;;;20.10;49.86
16331;BME280;8275;48.206;16.340;2023-05-24T03:56:04;99189.53;;;20.14;49.72
16331;BME280;8275;48.206;16.340;2023-05-24T03:58:33;99200.19;;;20.21;49.64
16331;BME280;8275;48.206;16.340;2023-05-24T04:01:03;99196.97;;;20.27;49.67
16331;BME280;8275;48.206;16.340;2023-05-24T04:03:31;99200.28;;;20.38;49.71
16331;BME280;8275;48.206;16.340;2023-05-24T04:06:01;99201.44;;;20.46;49.41
16331;BME280;8275;48.206;16.340;2023-05-24T04:08:29;99202.78;;;20.57;49.12
16331;BME280;8275;48.206;16.340;2023-05-24T04:10:58;99195.59;;;20.64;49.03
16331;BME280;8275;48.206;16.340;2023-05-24T04:13:26;99196.44;;;20.73;48.84
16331;BME280;8275;48.206;16.340;2023-05-24T04:15:54;99199.22;;;20.82;48.55
16331;BME280;8275;48.206;16.340;2023-05-24T04:18:24;99205.63;;;20.91;48.68
16331;BME280;8275;48.206;16.340;2023-05-24T04:20:53;99208.44;;;20.99;48.31
16331;BME280;8275;48.206;16.340;2023-05-24T04:23:22;99205.22;;;21.06;48.33
16331;BME280;8275;48.206;16.340;2023-05-24T04:25:50;99208.31;;;21.13;48.06
16331;BME280;8275;48.206;16.340;2023-05-24T04:28:18;99196.34;;;21.21;48.17
16331;BME280;8275;48.206;16.340;2023-05-24T04:30:49;99209.78;;;21.28;48.02
16331;BME280;8275;48.206;16.340;2023-05-24T04:33:18;99213.25;;;21.33;47.59
16331;BME280;8275;48.206;16.340;2023-05-24T04:35:48;99222.25;;;21.39;47.79
16331;BME280;8275;48.206;16.340;2023-05-24T04:38:16;99225.34;;;21.46;47.38
16331;BME280;8275;48.206;16.340;2023-05-24T04:40:48;99227.97;;;21.51;47.29
16331;BME280;8275;48.206;16.340;2023-05-24T04:43:16;99228.31;;;21.58;47.06
16331;BME280;8275;48.206;16.340;2023-05-24T04:45:44;99223.38;;;21.63;47.27
16331;BME280;8275;48.206;16.340;2023-05-24T04:48:13;99222.06;;;21.69;47.17
16331;BME280;8275;48.206;16.340;2023-05-24T04:50:42;99221.53;;;21.76;47.23
16331;BME280;8275;48.206;16.340;2023-05-24T04:53:12;99220.06;;;21.87;46.95
16331;BME280;8275;48.206;16.340;2023-05-24T04:55:41;99222.69;;;22.01;46.27
16331;BME280;8275;48.206;16.340;2023-05-24T04:58:10;99221.97;;;22.21;46.22
16331;BME280;8275;48.206;16.340;2023-05-24T05:00:38;99232.84;;;22.43;45.61
16331;BME280;8275;48.206;16.340;2023-05-24T05:03:08;99241.19;;;22.52;45.20
16331;BME280;8275;48.206;16.340;2023-05-24T05:05:37;99232.16;;;22.55;44.93
16331;BME280;8275;48.206;16.340;2023-05-24T05:08:05;99245.09;;;22.59;44.94
16331;BME280;8275;48.206;16.340;2023-05-24T05:10:35;99246.91;;;22.64;44.96
16331;BME280;8275;48.206;16.340;2023-05-24T05:13:04;99243.75;;;22.74;44.54
16331;BME280;8275;48.206;16.340;2023-05-24T05:15:32;99246.97;;;22.84;44.24
16331;BME280;8275;48.206;16.340;2023-05-24T05:18:01;99239.44;;;23.05;43.86
16331;BME280;8275;48.206;16.340;2023-05-24T05:20:29;99237.69;;;23.22;43.25
16331;BME280;8275;48.206;16.340;2023-05-24T05:22:58;99240.13;;;23.23;42.88
16331;BME280;8275;48.206;16.340;2023-05-24T05:25:26;99245.31;;;23.13;42.79
16331;BME280;8275;48.206;16.340;2023-05-24T05:27:56;99248.03;;;23.00;42.96
16331;BME280;8275;48.206;16.340;2023-05-24T05:30:24;99242.16;;;22.93;43.12
16331;BME280;8275;48.206;16.340;2023-05-24T05:32:53;99257.13;;;22.89;43.21
16331;BME280;8275;48.206;16.340;2023-05-24T05:35:21;99253.38;;;22.85;43.26
16331;BME280;8275;48.206;16.340;2023-05-24T05:37:50;99252.06;;;22.82;43.34
16331;BME280;8275;48.206;16.340;2023-05-24T05:40:18;99253.91;;;22.78;43.08
16331;BME280;8275;48.206;16.340;2023-05-24T05:42:47;99254.09;;;22.73;43.05
16331;BME280;8275;48.206;16.340;2023-05-24T05:45:17;99257.78;;;22.65;43.59
16331;BME280;8275;48.206;16.340;2023-05-24T05:47:46;99262.38;;;22.61;43.38
16331;BME280;8275;48.206;16.340;2023-05-24T05:50:15;99267.16;;;22.61;43.52
16331;BME280;8275;48.206;16.340;2023-05-24T05:52:43;99269.41;;;22.59;43.50
16331;BME280;8275;48.206;16.340;2023-05-24T05:55:12;99261.38;;;22.57;43.75
16331;BME280;8275;48.206;16.340;2023-05-24T05:57:40;99275.88;;;22.51;43.49
16331;BME280;8275;48.206;16.340;2023-05-24T06:00:10;99260.94;;;22.47;43.55
16331;BME280;8275;48.206;16.340;2023-05-24T06:02:40;99271.75;;;22.48;43.07
16331;BME280;8275;48.206;16.340;2023-05-24T06:05:09;99275.03;;;22.50;43.21
16331;BME280;8275;48.206;16.340;2023-05-24T06:07:39;99272.59;;;22.49;43.28
16331;BME280;8275;48.206;16.340;2023-05-24T06:10:08;99281.28;;;22.47;42.91
16331;BME280;8275;48.206;16.340;2023-05-24T06:12:37;99277.53;;;22.43;42.76
16331;BME280;8275;48.206;16.340;2023-05-24T06:15:08;99269.31;;;22.38;42.71
16331;BME280;8275;48.206;16.340;2023-05-24T06:17:36;99290.34;;;22.35;43.00
16331;BME280;8275;48.206;16.340;2023-05-24T06:20:07;99286.94;;;22.30;42.71
16331;BME280;8275;48.206;16.340;2023-05-24T06:22:37;99281.34;;;22.30;43.12
16331;BME280;8275;48.206;16.340;2023-05-24T06:25:06;99285.28;;;22.29;43.35
16331;BME280;8275;48.206;16.340;2023-05-24T06:27:35;99290.66;;;22.43;43.10
16331;BME280;8275;48.206;16.340;2023-05-24T06:30:06;99289.50;;;22.61;43.58
16331;BME280;8275;48.206;16.340;2023-05-24T06:32:34;99284.94;;;22.85;43.31
16331;BME280;8275;48.206;16.340;2023-05-24T06:35:04;99284.50;;;23.04;42.81
16331;BME280;8275;48.206;16.340;2023-05-24T06:37:34;99286.56;;;23.16;42.33
16331;BME280;8275;48.206;16.340;2023-05-24T06:40:03;99288.28;;;23.29;41.61
16331;BME280;8275;48.206;16.340;2023-05-24T06:42:32;99291.19;;;23.32;41.53
16331;BME280;8275;48.206;16.340;2023-05-24T06:45:01;99294.19;;;23.36;41.55
16331;BME280;8275;48.206;16.340;2023-05-24T06:47:30;99293.78;;;23.46;41.16
16331;BME280;8275;48.206;16.340;2023-05-24T06:49:58;99291.88;;;23.58;40.69
16331;BME280;8275;48.206;16.340;2023-05-24T06:52:28;99294.38;;;23.72;40.86
16331;BME280;8275;48.206;16.340;2023-05-24T06:54:57;99288.84;;;23.84;40.66
16331;BME280;8275;48.206;16.340;2023-05-24T06:57:26;99301.03;;;24.00;40.16
16331;BME280;8275;48.206;16.340;2023-05-24T06:59:54;99300.00;;;24.05;39.80
16331;BME280;8275;48.206;16.340;2023-05-24T07:02:23;99302.16;;;24.08;39.39
16331;BME280;8275;48.206;16.340;2023-05-24T07:04:53;99298.53;;;24.07;39.41
16331;BME280;8275;48.206;16.340;2023-05-24T07:07:23;99304.97;;;24.08;39.54
16331;BME280;8275;48.206;16.340;2023-05-24T07:09:51;99306.72;;;24.12;39.12
16331;BME280;8275;48.206;16.340;2023-05-24T07:12:21;99308.81;;;24.15;39.44
16331;BME280;8275;48.206;16.340;2023-05-24T07:14:50;99309.69;;;24.28;39.35
16331;BME280;8275;48.206;16.340;2023-05-24T07:17:19;99314.34;;;24.36;38.43
16331;BME280;8275;48.206;16.340;2023-05-24T07:19:47;99311.34;;;24.41;38.34
16331;BME280;8275;48.206;16.340;2023-05-24T07:22:16;99310.31;;;24.46;37.75
16331;BME280;8275;48.206;16.340;2023-05-24T07:24:45;99302.25;;;24.44;37.39
16331;BME280;8275;48.206;16.340;2023-05-24T07:27:13;99305.53;;;24.46;37.39
16331;BME280;8275;48.206;16.340;2023-05-24T07:29:43;99298.19;;;24.54;37.41
16331;BME280;8275;48.206;16.340;2023-05-24T07:32:14;99302.53;;;24.63;37.29
16331;BME280;8275;48.206;16.340;2023-05-24T07:34:43;99309.31;;;24.74;37.35
16331;BME280;8275;48.206;16.340;2023-05-24T07:37:11;99306.41;;;24.83;36.74
16331;BME280;8275;48.206;16.340;2023-05-24T07:39:40;99298.69;;;24.80;36.46
16331;BME280;8275;48.206;16.340;2023-05-24T07:42:08;99306.19;;;24.76;36.21
16331;BME280;8275;48.206;16.340;2023-05-24T07:44:36;99301.13;;;24.69;36.07
16331;BME280;8275;48.206;16.340;2023-05-24T07:47:06;99308.81;;;24.60;36.25
16331;BME280;8275;48.206;16.340;2023-05-24T07:49:35;99306.25;;;24.55;36.49
16331;BME280;8275;48.206;16.340;2023-05-24T07:52:03;99319.88;;;24.57;36.78
16331;BME280;8275;48.206;16.340;2023-05-24T07:54:32;99310.56;;;24.53;36.29
16331;BME280;8275;48.206;16.340;2023-05-24T07:57:00;99317.41;;;24.43;36.44
16331;BME280;8275;48.206;16.340;2023-05-24T07:59:29;99315.53;;;24.35;36.08
16331;BME280;8275;48.206;16.340;2023-05-24T08:01:57;99311.66;;;24.27;36.00
16331;BME280;8275;48.206;16.340;2023-05-24T08:04:31;99319.13;;;24.23;36.34
16331;BME280;8275;48.206;16.340;2023-05-24T08:07:00;99321.56;;;24.25;36.17
16331;BME280;8275;48.206;16.340;2023-05-24T08:09:29;99318.53;;;24.30;36.10
16331;BME280;8275;48.206;16.340;2023-05-24T08:12:03;99330.47;;;24.39;36.07
16331;BME280;8275;48.206;16.340;2023-05-24T08:14:31;99325.38;;;24.53;35.51
16331;BME280;8275;48.206;16.340;2023-05-24T08:17:01;99323.53;;;24.69;35.49
16331;BME280;8275;48.206;16.340;2023-05-24T08:19:31;99312.25;;;24.78;34.83
16331;BME280;8275;48.206;16.340;2023-05-24T08:22:02;99323.84;;;24.88;35.04
16331;BME280;8275;48.206;16.340;2023-05-24T08:24:31;99320.09;;;24.96;34.98
16331;BME280;8275;48.206;16.340;2023-05-24T08:27:00;99327.44;;;25.01;34.81
16331;BME280;8275;48.206;16.340;2023-05-24T08:29:30;99324.63;;;25.01;34.41
16331;BME280;8275;48.206;16.340;2023-05-24T08:31:59;99323.59;;;25.05;34.36
16331;BME280;8275;48.206;16.340;2023-05-24T08:34:30;99316.81;;;25.06;34.54
16331;BME280;8275;48.206;16.340;2023-05-24T08:36:59;99314.59;;;25.12;34.65
16331;BME280;8275;48.206;16.340;2023-05-24T08:39:28;99322.44;;;25.19;34.81
16331;BME280;8275;48.206;16.340;2023-05-24T08:41:57;99318.56;;;25.23;34.33
16331;BME280;8275;48.206;16.340;2023-05-24T08:44:41;99323.81;;;25.25;34.63
16331;BME280;8275;48.206;16.340;2023-05-24T08:47:16;99313.88;;;25.27;34.79
16331;BME280;8275;48.206;16.340;2023-05-24T08:49:46;99324.41;;;25.30;33.84
16331;BME280;8275;48.206;16.340;2023-05-24T08:52:15;99305.94;;;25.29;33.97
16331;BME280;8275;48.206;16.340;2023-05-24T08:54:46;99315.63;;;25.32;33.91
16331;BME280;8275;48.206;16.340;2023-05-24T08:57:17;99323.22;;;25.31;33.65
16331;BME280;8275;48.206;16.340;2023-05-24T08:59:46;99316.09;;;25.34;33.18
16331;BME280;8275;48.206;16.340;2023-05-24T09:02:14;99314.13;;;25.34;33.14
16331;BME280;8275;48.206;16.340;2023-05-24T09:04:47;99314.94;;;25.35;33.11
16331;BME280;8275;48.206;16.340;2023-05-24T09:07:19;99323.09;;;25.40;32.91
16331;BME280;8275;48.206;16.340;2023-05-24T09:09:56;99331.16;;;25.41;33.08
16331;BME280;8275;48.206;16.340;2023-05-24T09:12:27;99331.75;;;25.47;33.24
16331;BME280;8275;48.206;16.340;2023-05-24T09:15:10;99334.78;;;25.54;32.87
16331;BME280;8275;48.206;16.340;2023-05-24T09:17:39;99326.59;;;25.61;33.24
16331;BME280;8275;48.206;16.340;2023-05-24T09:20:11;99320.03;;;25.69;33.09
16331;BME280;8275;48.206;16.340;2023-05-24T09:22:41;99319.19;;;25.81;33.02
16331;BME280;8275;48.206;16.340;2023-05-24T09:25:13;99322.66;;;25.90;33.39
16331;BME280;8275;48.206;16.340;2023-05-24T09:27:47;99319.69;;;25.98;32.69
16331;BME280;8275;48.206;16.340;2023-05-24T09:30:16;99317.09;;;26.05;32.72
16331;BME280;8275;48.206;16.340;2023-05-24T09:32:56;99322.81;;;26.09;32.94
16331;BME280;8275;48.206;16.340;2023-05-24T09:35:27;99323.88;;;26.16;32.83
16331;BME280;8275;48.206;16.340;2023-05-24T09:37:56;99320.34;;;26.19;32.63
16331;BME280;8275;48.206;16.340;2023-05-24T09:40:27;99329.69;;;26.23;32.39
16331;BME280;8275;48.206;16.340;2023-05-24T09:43:04;99326.16;;;26.26;32.65
16331;BME280;8275;48.206;16.340;2023-05-24T09:45:41;99330.50;;;26.24;32.10
16331;BME280;8275;48.206;16.340;2023-05-24T09:48:14;99326.16;;;26.26;32.36
16331;BME280;8275;48.206;16.340;2023-05-24T09:50:46;99329.88;;;26.30;32.06
16331;BME280;8275;48.206;16.340;2023-05-24T09:53:24;99345.91;;;26.30;31.53
16331;BME280;8275;48.206;16.340;2023-05-24T09:55:54;99330.97;;;26.26;32.12
16331;BME280;8275;48.206;16.340;2023-05-24T09:58:28;99334.13;;;26.24;32.00
16331;BME280;8275;48.206;16.340;2023-05-24T10:01:05;99338.81;;;26.20;31.80
16331;BME280;8275;48.206;16.340;2023-05-24T10:03:35;99337.19;;;26.19;32.21
16331;BME280;8275;48.206;16.340;2023-05-24T10:06:06;99341.28;;;26.22;31.91
16331;BME280;8275;48.206;16.340;2023-05-24T10:08:35;99332.22;;;26.28;31.62
16331;BME280;8275;48.206;16.340;2023-05-24T10:11:03;99334.78;;;26.33;31.74
16331;BME280;8275;48.206;16.340;2023-05-24T10:13:32;99326.00;;;26.51;32.41
16331;BME280;8275;48.206;16.340;2023-05-24T10:16:03;99326.13;;;26.70;32.41
16331;BME280;8275;48.206;16.340;2023-05-24T10:18:32;99321.81;;;26.88;31.96
16331;BME280;8275;48.206;16.340;2023-05-24T10:21:01;99329.41;;;27.03;32.00
16331;BME280;8275;48.206;16.340;2023-05-24T10:23:37;99328.88;;;27.13;31.49
16331;BME280;8275;48.206;16.340;2023-05-24T10:26:08;99331.16;;;27.23;31.22
16331;BME280;8275;48.206;16.340;2023-05-24T10:28:43;99321.78;;;27.35;31.03
16331;BME280;8275;48.206;16.340;2023-05-24T10:31:17;99322.66;;;27.54;31.47
16331;BME280;8275;48.206;16.340;2023-05-24T10:33:50;99317.44;;;27.72;30.59
16331;BME280;8275;48.206;16.340;2023-05-24T10:36:27;99316.84;;;27.82;30.55
16331;BME280;8275;48.206;16.340;2023-05-24T10:38:58;99327.81;;;27.87;30.12
16331;BME280;8275;48.206;16.340;2023-05-24T10:41:26;99318.53;;;27.87;30.03
16331;BME280;8275;48.206;16.340;2023-05-24T10:43:56;99314.56;;;27.88;30.50
16331;BME280;8275;48.206;16.340;2023-05-24T10:46:38;99332.53;;;27.99;30.12
16331;BME280;8275;48.206;16.340;2023-05-24T10:49:27;99333.84;;;28.05;29.99
16331;BME280;8275;48.206;16.340;2023-05-24T10:52:00;99329.84;;;28.06;29.66
16331;BME280;8275;48.206;16.340;2023-05-24T10:54:31;99329.25;;;28.16;29.65
16331;BME280;8275;48.206;16.340;2023-05-24T10:57:01;99328.75;;;28.29;29.34
16331;BME280;8275;48.206;16.340;2023-05-24T10:59:33;99334.19;;;28.41;29.40
16331;BME280;8275;48.206;16.340;2023-05-24T11:02:06;99332.63;;;28.44;29.12
16331;BME280;8275;48.206;16.340;2023-05-24T11:04:41;99329.91;;;28.47;29.10
16331;BME280;8275;48.206;16.340;2023-05-24T11:07:12;99331.44;;;28.64;28.97
16331;BME280;8275;48.206;16.340;2023-05-24T11:09:44;99333.03;;;28.84;28.55
16331;BME280;8275;48.206;16.340;2023-05-24T11:12:19;99328.56;;;29.06;28.08
16331;BME280;8275;48.206;16.340;2023-05-24T11:14:49;99329.78;;;29.31;27.65
16331;BME280;8275;48.206;16.340;2023-05-24T11:17:20;99329.69;;;29.50;27.54
16331;BME280;8275;48.206;16.340;2023-05-24T11:19:51;99332.41;;;29.69;27.78
16331;BME280;8275;48.206;16.340;2023-05-24T11:22:21;99327.78;;;29.84;27.60
16331;BME280;8275;48.206;16.340;2023-05-24T11:24:52;99320.63;;;29.90;27.93
16331;BME280;8275;48.206;16.340;2023-05-24T11:27:21;99320.28;;;29.95;27.97
16331;BME280;8275;48.206;16.340;2023-05-24T11:29:52;99322.28;;;29.95;27.36
16331;BME280;8275;48.206;16.340;2023-05-24T11:32:21;99321.91;;;29.96;27.38
16331;BME280;8275;48.206;16.340;2023-05-24T11:34:51;99314.34;;;30.04;27.25
16331;BME280;8275;48.206;16.340;2023-05-24T11:37:20;99315.91;;;30.01;26.58
16331;BME280;8275;48.206;16.340;2023-05-24T11:40:07;99314.06;;;29.82;26.54
16331;BME280;8275;48.206;16.340;2023-05-24T11:42:37;99311.75;;;29.92;26.07
16331;BME280;8275;48.206;16.340;2023-05-24T11:45:09;99313.03;;;30.31;26.51
16331;BME280;8275;48.206;16.340;2023-05-24T11:47:38;99300.81;;;30.93;25.60
16331;BME280;8275;48.206;16.340;2023-05-24T11:50:08;99298.81;;;31.48;24.76
16331;BME280;8275;48.206;16.340;2023-05-24T11:52:38;99299.16;;;32.08;25.24
16331;BME280;8275;48.206;16.340;2023-05-24T11:55:11;99300.56;;;32.60;23.60
16331;BME280;8275;48.206;16.340;2023-05-24T11:57:57;99293.69;;;32.93;23.54
16331;BME280;8275;48.206;16.340;2023-05-24T12:00:27;99303.88;;;33.22;23.08
16331;BME280;8275;48.206;16.340;2023-05-24T12:02:56;99298.59;;;33.38;23.17
16331;BME280;8275;48.206;16.340;2023-05-24T12:05:28;99298.19;;;33.54;22.32
16331;BME280;8275;48.206;16.340;2023-05-24T12:08:02;99299.31;;;33.81;22.87
16331;BME280;8275;48.206;16.340;2023-05-24T12:10:34;99300.81;;;34.17;21.55
16331;BME280;8275;48.206;16.340;2023-05-24T12:13:04;99294.94;;;34.56;21.84
16331;BME280;8275;48.206;16.340;2023-05-24T12:15:33;99296.78;;;34.87;20.86
16331;BME280;8275;48.206;16.340;2023-05-24T12:18:02;99297.03;;;35.10;20.88
16331;BME280;8275;48.206;16.340;2023-05-24T12:20:30;99290.28;;;35.35;21.13
16331;BME280;8275;48.206;16.340;2023-05-24T12:23:00;99296.56;;;35.60;20.87
16331;BME280;8275;48.206;16.340;2023-05-24T12:25:28;99301.22;;;35.80;20.54
16331;BME280;8275;48.206;16.340;2023-05-24T12:27:58;99297.97;;;35.82;20.26
16331;BME280;8275;48.206;16.340;2023-05-24T12:30:27;99300.34;;;35.50;19.70
16331;BME280;8275;48.206;16.340;2023-05-24T12:32:56;99297.28;;;35.26;20.19
16331;BME280;8275;48.206;16.340;2023-05-24T12:35:25;99304.19;;;35.29;20.45
16331;BME280;8275;48.206;16.340;2023-05-24T12:37:58;99298.94;;;35.20;19.54
16331;BME280;8275;48.206;16.340;2023-05-24T12:40:31;99292.19;;;35.00;18.88
16331;BME280;8275;48.206;16.340;2023-05-24T12:43:03;99293.88;;;34.94;19.85
16331;BME280;8275;48.206;16.340;2023-05-24T12:45:32;99295.84;;;35.01;19.68
16331;BME280;8275;48.206;16.340;2023-05-24T12:48:00;99298.69;;;35.04;19.76
16331;BME280;8275;48.206;16.340;2023-05-24T12:50:32;99288.66;;;34.86;19.59
16331;BME280;8275;48.206;16.340;2023-05-24T12:53:01;99299.03;;;34.55;20.22
16331;BME280;8275;48.206;16.340;2023-05-24T12:55:29;99298.41;;;34.16;20.04
16331;BME280;8275;48.206;16.340;2023-05-24T12:57:58;99295.72;;;33.70;20.83
16331;BME280;8275;48.206;16.340;2023-05-24T13:00:30;99298.59;;;33.28;20.74
16331;BME280;8275;48.206;16.340;2023-05-24T13:02:58;99293.31;;;32.94;21.64
16331;BME280;8275;48.206;16.340;2023-05-24T13:05:27;99297.31;;;32.65;21.60
16331;BME280;8275;48.206;16.340;2023-05-24T13:07:56;99294.41;;;32.40;22.15
16331;BME280;8275;48.206;16.340;2023-05-24T13:10:26;99293.97;;;32.21;21.92
16331;BME280;8275;48.206;16.340;2023-05-24T13:12:54;99298.38;;;32.11;22.63
16331;BME280;8275;48.206;16.340;2023-05-24T13:15:23;99295.91;;;32.06;22.22
16331;BME280;8275;48.206;16.340;2023-05-24T13:17:54;99295.09;;;32.02;22.45